Time;durP1;ratioP1;P1;durP2;ratioP2;P2;SDS_P1;SDS_P2;PMS_P1;PMS_P2;Temp;Humidity;BMP_temperature;BMP_pressure;BME280_temperature;BME280_humidity;BME280_pressure;Samples;Min_cycle;Max_cycle;Signal;HPM_P1;HPM_P2
2022/06/07 00:08:16;;;;;;;1.50;0.70;;;20.00;99.90;;;;;;5564684;23;20301;-96
2022/06/07 00:16:36;;;;;;;1.87;0.60;;;19.70;99.90;;;;;;5002678;23;20281;-96
2022/06/07 00:19:13;;;;;;;1.80;0.53;;;19.20;99.90;;;;;;4990374;28;20326;-96
2022/06/07 00:21:45;;;;;;;1.37;0.50;;;18.80;99.90;;;;;;4982473;28;20206;-96
2022/06/07 00:24:19;;;;;;;1.10;0.60;;;18.60;99.90;;;;;;4993784;28;20207;-96
2022/06/07 00:26:51;;;;;;;1.17;0.60;;;18.50;99.90;;;;;;5005548;28;20244;-96
2022/06/07 00:29:25;;;;;;;0.97;0.60;;;18.50;99.90;;;;;;5011551;28;20578;-96
2022/06/07 00:31:59;;;;;;;1.10;0.60;;;18.40;99.90;;;;;;4988612;28;20195;-96
2022/06/07 00:34:32;;;;;;;2.60;0.70;;;18.40;99.90;;;;;;4992704;28;20329;-96
2022/06/07 00:37:05;;;;;;;0.90;0.50;;;17.90;99.90;;;;;;5454517;23;20242;-96
2022/06/07 00:39:39;;;;;;;2.17;0.50;;;17.80;99.90;;;;;;5024007;28;20267;-95
2022/06/07 00:42:12;;;;;;;0.70;0.40;;;18.00;99.90;;;;;;5012356;28;20209;-96
2022/06/07 00:47:35;;;;;;;1.40;0.70;;;18.10;99.90;;;;;;5008449;28;20202;-96
2022/06/07 00:50:10;;;;;;;2.53;0.60;;;18.10;99.90;;;;;;5006945;28;20232;-96
2022/06/07 00:52:41;;;;;;;0.67;0.40;;;18.00;99.90;;;;;;5016662;28;20255;-96
2022/06/07 00:55:17;;;;;;;1.67;0.70;;;18.00;99.90;;;;;;5014316;28;20273;-96
2022/06/07 00:57:49;;;;;;;2.03;0.50;;;18.10;99.90;;;;;;5001475;28;20206;-96
2022/06/07 01:00:25;;;;;;;1.73;0.70;;;18.30;99.90;;;;;;5000667;28;20242;-96
2022/06/07 01:02:57;;;;;;;1.30;0.60;;;18.60;99.90;;;;;;5005586;28;20249;-96
2022/06/07 01:05:30;;;;;;;1.63;0.70;;;18.90;99.90;;;;;;5023712;28;20201;-96
2022/06/07 01:10:56;;;;;;;1.20;0.70;;;18.70;99.90;;;;;;5013769;28;20269;-96
2022/06/07 01:13:31;;;;;;;1.67;0.77;;;18.30;99.90;;;;;;5018076;28;20248;-96
2022/06/07 01:16:07;;;;;;;1.30;0.80;;;18.00;99.90;;;;;;5012369;28;20256;-96
2022/06/07 01:18:39;;;;;;;1.20;0.70;;;18.00;99.90;;;;;;5000586;28;20595;-96
2022/06/07 01:21:35;;;;;;;2.73;0.80;;;17.90;99.90;;;;;;4996142;28;20213;-96
2022/06/07 01:24:07;;;;;;;1.23;0.60;;;17.70;99.90;;;;;;4992691;28;20258;-96
2022/06/07 01:26:40;;;;;;;1.57;0.60;;;17.60;99.90;;;;;;4983958;28;20274;-96
2022/06/07 01:41:53;;;;;;;1.27;0.60;;;17.30;99.90;;;;;;5765899;23;20313;-96
2022/06/07 01:41:54;;;;;;;1.30;0.50;;;17.40;99.90;;;;;;5026209;28;20206;-96
2022/06/07 01:44:28;;;;;;;1.73;0.60;;;17.50;99.90;;;;;;5018556;28;20300;-96
2022/06/07 01:47:03;;;;;;;0.50;0.40;;;17.50;99.90;;;;;;5029524;28;20202;-96
2022/06/07 01:49:37;;;;;;;0.73;0.60;;;17.50;99.90;;;;;;5030103;28;20193;-96
2022/06/07 01:52:13;;;;;;;1.03;0.80;;;17.40;99.90;;;;;;5031198;28;20184;-96
2022/06/07 01:54:54;;;;;;;1.73;0.80;;;17.50;99.90;;;;;;5030684;28;20212;-96
2022/06/07 01:57:26;;;;;;;0.90;0.80;;;17.70;99.90;;;;;;5029744;28;20212;-96
2022/06/07 02:00:04;;;;;;;1.53;0.40;;;17.60;99.90;;;;;;5028555;28;20241;-96
2022/06/07 02:02:42;;;;;;;1.07;0.47;;;17.60;99.90;;;;;;5021918;28;20206;-96
2022/06/07 02:05:17;;;;;;;0.53;0.47;;;17.60;99.90;;;;;;5026354;28;20213;-96
2022/06/07 02:07:49;;;;;;;0.67;0.40;;;17.80;99.90;;;;;;5023536;28;20213;-96
2022/06/07 02:10:28;;;;;;;0.80;0.60;;;17.80;99.90;;;;;;5023229;28;20213;-96
2022/06/07 02:13:09;;;;;;;1.57;0.70;;;17.90;99.90;;;;;;5033206;28;20300;-96
2022/06/07 02:15:42;;;;;;;1.13;0.57;;;18.10;99.90;;;;;;5035910;28;20193;-96
2022/06/07 02:18:21;;;;;;;1.00;0.70;;;18.10;99.90;;;;;;5027905;28;20243;-96
2022/06/07 02:21:06;;;;;;;0.90;0.47;;;18.10;99.90;;;;;;5026533;28;20237;-96
2022/06/07 02:23:40;;;;;;;3.10;0.60;;;18.10;99.90;;;;;;5027769;28;20213;-96
2022/06/07 02:26:28;;;;;;;2.40;0.70;;;18.00;99.90;;;;;;5033404;28;20276;-96
2022/06/07 02:29:08;;;;;;;0.60;0.50;;;18.00;99.90;;;;;;5032238;28;20213;-96
2022/06/07 02:31:42;;;;;;;1.57;0.50;;;17.90;99.90;;;;;;5032257;28;20203;-96
2022/06/07 02:34:21;;;;;;;0.37;0.30;;;17.90;99.90;;;;;;5249489;23;20230;-96
2022/06/07 02:36:57;;;;;;;2.37;0.70;;;17.90;99.90;;;;;;5018169;28;20192;-96
2022/06/07 02:39:32;;;;;;;1.70;0.60;;;18.00;99.90;;;;;;5017106;28;20234;-96
2022/06/07 02:42:12;;;;;;;0.73;0.40;;;18.10;99.90;;;;;;5017515;28;20202;-96
2022/06/07 02:44:45;;;;;;;0.73;0.30;;;18.20;99.90;;;;;;5020254;28;20204;-96
2022/06/07 02:47:17;;;;;;;0.23;0.23;;;18.20;99.90;;;;;;5019164;28;20198;-96
2022/06/07 02:52:28;;;;;;;0.40;0.30;;;18.20;99.90;;;;;;5639182;23;20300;-96
2022/06/07 02:57:44;;;;;;;0.67;0.43;;;17.90;99.90;;;;;;5014012;28;20233;-96
2022/06/07 03:00:18;;;;;;;0.30;0.30;;;17.90;99.90;;;;;;5011614;28;20241;-96
2022/06/07 03:02:59;;;;;;;1.47;0.40;;;17.90;99.90;;;;;;5016133;28;20205;-96
2022/06/07 03:05:31;;;;;;;0.63;0.40;;;17.90;99.90;;;;;;4996748;28;20227;-96
2022/06/07 03:08:05;;;;;;;0.50;0.33;;;17.90;99.90;;;;;;4997106;28;20198;-96
2022/06/07 03:10:41;;;;;;;0.43;0.40;;;17.80;99.90;;;;;;4997414;28;20195;-96
2022/06/07 03:13:17;;;;;;;0.83;0.50;;;17.60;99.90;;;;;;4996526;28;20227;-96
2022/06/07 03:15:52;;;;;;;0.40;0.20;;;17.40;99.90;;;;;;4995506;28;20269;-96
2022/06/07 03:18:25;;;;;;;0.50;0.30;;;17.30;99.90;;;;;;4996806;28;20226;-96
2022/06/07 03:20:58;;;;;;;0.40;0.40;;;17.20;99.90;;;;;;4996965;28;20242;-96
2022/06/07 06:35:15;;;;;;;0.90;0.70;;;11.50;99.90;;;;;;5603179;23;20328;-95
2022/06/07 08:12:15;;;;;;;1.90;0.90;;;10.50;99.90;;;;;;5648201;23;20276;-96
2022/06/07 08:39:29;;;;;;;2.90;1.07;;;10.20;99.90;;;;;;4964446;29;20215;-96
2022/06/07 08:42:04;;;;;;;2.67;1.03;;;10.20;99.90;;;;;;4960344;29;20478;-96
2022/06/07 08:44:52;;;;;;;1.30;1.20;;;10.20;99.90;;;;;;4996495;28;20264;-96
2022/06/07 08:47:30;;;;;;;3.20;1.13;;;10.20;99.90;;;;;;5012605;28;20209;-96
2022/06/07 08:50:23;;;;;;;2.00;1.20;;;10.10;99.90;;;;;;5012728;28;20209;-96
2022/06/07 15:45:20;;;;;;;4.40;0.97;;;14.60;99.90;;;;;;5049491;23;20242;-96
2022/06/07 15:48:11;;;;;;;2.73;0.70;;;14.40;99.90;;;;;;4997084;28;20194;-96
2022/06/07 15:50:49;;;;;;;2.77;0.50;;;14.30;99.90;;;;;;4992410;28;20207;-96
2022/06/07 15:53:23;;;;;;;3.43;0.80;;;14.30;99.90;;;;;;4981315;28;20212;-96
2022/06/07 16:01:30;;;;;;;1.73;0.80;;;14.50;99.90;;;;;;5008899;28;20238;-96
2022/06/07 16:04:02;;;;;;;2.33;0.70;;;14.50;99.90;;;;;;5058957;23;20291;-96
2022/06/07 16:06:36;;;;;;;2.50;0.60;;;14.40;99.90;;;;;;5025273;28;20866;-96
2022/06/07 16:09:10;;;;;;;1.23;0.73;;;14.40;99.90;;;;;;5030695;28;20202;-96
2022/06/07 16:11:42;;;;;;;1.67;0.67;;;14.40;99.90;;;;;;5030592;28;20221;-96
2022/06/07 16:14:13;;;;;;;2.63;0.80;;;14.30;99.90;;;;;;5026731;28;20214;-96
2022/06/07 16:16:47;;;;;;;1.70;0.70;;;14.30;99.90;;;;;;5031051;28;20206;-96
2022/06/07 16:19:25;;;;;;;2.10;0.67;;;14.30;99.90;;;;;;5033225;28;20236;-96
2022/06/07 16:22:00;;;;;;;4.47;0.80;;;14.40;99.90;;;;;;5029431;28;20229;-96
2022/06/07 16:24:34;;;;;;;1.17;0.83;;;14.50;99.90;;;;;;5033782;28;20201;-96
2022/06/07 16:33:18;;;;;;;1.53;0.73;;;14.60;99.90;;;;;;5032359;28;20229;-96
2022/06/07 16:35:36;;;;;;;1.17;0.80;;;14.80;99.90;;;;;;5027980;28;20345;-96
2022/06/07 16:38:08;;;;;;;0.40;0.40;;;14.90;99.90;;;;;;5029099;28;20236;-96
2022/06/07 16:40:40;;;;;;;0.70;0.63;;;15.00;99.90;;;;;;5027888;28;20216;-96
2022/06/07 16:46:03;;;;;;;1.00;0.60;;;15.10;99.90;;;;;;5030412;28;20273;-96
2022/06/07 16:48:39;;;;;;;0.87;0.50;;;15.10;99.90;;;;;;5152077;23;20237;-96
2022/06/07 16:51:11;;;;;;;2.10;0.60;;;15.10;99.90;;;;;;4999032;28;20210;-96
2022/06/07 16:56:19;;;;;;;2.93;0.60;;;15.20;99.90;;;;;;5055188;23;20280;-86
2022/06/07 16:58:52;;;;;;;1.07;0.70;;;15.40;99.90;;;;;;5027970;28;20248;-96
2022/06/07 17:01:24;;;;;;;1.90;0.60;;;15.40;99.90;;;;;;5029257;28;20238;-96
2022/06/07 17:04:00;;;;;;;1.13;0.60;;;15.40;99.90;;;;;;5033859;28;20229;-96
2022/06/07 17:06:37;;;;;;;0.70;0.53;;;15.60;99.90;;;;;;5035726;28;20205;-96
2022/06/07 17:11:45;;;;;;;2.60;0.77;;;15.70;99.90;;;;;;5572017;23;20229;-96
2022/06/07 17:14:18;;;;;;;2.00;0.77;;;15.90;99.90;;;;;;5015512;28;20222;-96
2022/06/07 17:16:53;;;;;;;1.07;0.60;;;15.90;99.90;;;;;;5015042;28;20282;-96
2022/06/07 17:19:27;;;;;;;3.53;0.50;;;16.10;99.90;;;;;;5011428;28;20566;-90
2022/06/07 17:30:10;;;;;;;1.27;0.53;;;16.50;99.90;;;;;;5569375;23;20256;-96
2022/06/07 17:32:42;;;;;;;2.83;0.77;;;16.60;99.90;;;;;;5030260;28;20247;-89
2022/06/07 18:15:43;;;;;;;1.53;0.60;;;18.70;99.90;;;;;;4994102;28;20249;-94
2022/06/07 18:18:17;;;;;;;5.47;0.80;;;18.80;99.90;;;;;;4979038;28;20646;-94
2022/06/07 18:20:49;;;;;;;2.10;0.60;;;18.90;99.90;;;;;;4996032;28;20194;-94
2022/06/07 18:26:04;;;;;;;1.83;0.70;;;19.00;99.90;;;;;;5019768;23;20232;-94
2022/06/07 18:28:47;;;;;;;4.93;1.00;;;19.00;99.90;;;;;;4995645;28;20214;-94
2022/06/07 18:31:25;;;;;;;1.27;0.70;;;19.10;99.90;;;;;;4988150;28;20202;-92
2022/06/07 18:33:57;;;;;;;2.00;0.70;;;19.10;99.90;;;;;;4994216;28;20219;-93
2022/06/07 18:36:30;;;;;;;1.70;0.40;;;19.10;99.90;;;;;;4984683;28;20656;-94
2022/06/07 18:39:05;;;;;;;1.13;0.50;;;19.20;99.90;;;;;;5000790;28;20217;-92
2022/06/07 18:41:37;;;;;;;0.87;0.50;;;19.30;99.90;;;;;;5010050;28;20232;-95
2022/06/07 18:44:09;;;;;;;1.37;0.50;;;19.30;99.90;;;;;;4997793;28;20210;-94
2022/06/07 18:46:47;;;;;;;2.53;0.53;;;19.00;99.90;;;;;;4999492;28;20214;-94
2022/06/07 18:49:18;;;;;;;0.43;0.40;;;19.10;99.90;;;;;;5012126;28;20233;-95
2022/06/07 18:51:51;;;;;;;0.80;0.53;;;19.30;99.90;;;;;;5005915;28;20222;-94
2022/06/07 18:54:24;;;;;;;1.87;0.47;;;19.40;99.90;;;;;;5000268;28;20260;-95
2022/06/07 18:56:56;;;;;;;1.80;0.77;;;19.60;99.90;;;;;;5000613;28;20214;-95
2022/06/07 18:59:31;;;;;;;1.97;0.73;;;19.70;99.90;;;;;;5011125;28;20214;-95
2022/06/07 19:02:05;;;;;;;2.90;0.70;;;19.80;99.90;;;;;;4999692;28;20245;-96
2022/06/07 19:04:36;;;;;;;0.63;0.50;;;19.90;99.90;;;;;;5002781;28;20211;-96
2022/06/07 19:07:10;;;;;;;0.80;0.40;;;19.90;99.90;;;;;;5008204;28;20194;-96
2022/06/07 19:09:48;;;;;;;0.80;0.50;;;20.00;99.90;;;;;;4994759;28;20210;-96
2022/06/07 19:12:20;;;;;;;0.90;0.50;;;20.10;99.90;;;;;;5003566;28;20202;-96
2022/06/07 19:14:52;;;;;;;0.30;0.30;;;20.30;99.90;;;;;;5008858;28;20217;-95
2022/06/07 19:17:26;;;;;;;2.10;1.13;;;20.40;99.90;;;;;;5004640;28;20226;-95
2022/06/07 19:19:58;;;;;;;0.50;0.50;;;20.60;99.90;;;;;;5007297;28;20233;-96
2022/06/07 19:22:31;;;;;;;0.40;0.40;;;20.70;99.90;;;;;;5006177;28;20233;-95
2022/06/07 19:25:02;;;;;;;0.60;0.37;;;20.70;99.90;;;;;;4996673;28;20221;-96
2022/06/07 19:27:35;;;;;;;0.47;0.40;;;20.60;99.90;;;;;;4994868;28;20226;-94
2022/06/07 19:30:13;;;;;;;0.70;0.50;;;20.70;99.90;;;;;;5001929;28;20206;-96
2022/06/07 19:32:52;;;;;;;1.13;0.37;;;20.80;99.90;;;;;;5087298;23;20254;-96
2022/06/07 19:35:30;;;;;;;0.53;0.40;;;21.10;99.90;;;;;;5039254;28;20189;-96
2022/06/07 19:40:46;;;;;;;2.63;0.50;;;21.40;99.90;;;;;;5772194;22;20244;-96
2022/06/07 19:43:22;;;;;;;0.40;0.40;;;21.10;99.90;;;;;;5035560;28;20264;-96
2022/06/07 19:59:40;;;;;;;1.40;0.70;;;21.40;99.90;;;;;;4996691;28;20198;-96
2022/06/07 20:02:12;;;;;;;2.10;0.80;;;21.50;99.90;;;;;;4991246;28;20231;-96
2022/06/07 20:04:43;;;;;;;5.13;0.83;;;21.20;99.90;;;;;;4987824;28;20216;-96
2022/06/07 20:07:20;;;;;;;1.63;0.60;;;21.30;99.90;;;;;;4996532;28;20198;-96
2022/06/07 20:09:52;;;;;;;0.80;0.67;;;21.50;99.90;;;;;;4978355;28;20206;-96
2022/06/07 20:12:23;;;;;;;1.53;0.90;;;21.60;99.90;;;;;;4996589;28;20238;-96
2022/06/07 20:14:55;;;;;;;2.40;0.60;;;21.70;99.90;;;;;;4991838;28;20199;-96
2022/06/07 20:17:27;;;;;;;2.77;0.73;;;21.60;99.90;;;;;;4991522;28;20195;-96
2022/06/07 20:20:08;;;;;;;2.00;0.77;;;21.60;99.90;;;;;;4998534;28;20222;-96
2022/06/07 20:22:42;;;;;;;1.07;0.70;;;21.80;99.90;;;;;;4987092;28;20210;-96
2022/06/07 20:25:14;;;;;;;2.90;0.90;;;21.80;99.90;;;;;;4976305;28;20278;-96
2022/06/07 20:27:46;;;;;;;2.43;0.70;;;21.90;99.90;;;;;;4998652;28;20199;-96
2022/06/07 20:30:19;;;;;;;2.07;0.80;;;22.00;99.90;;;;;;4996824;28;20206;-93
2022/06/07 20:32:52;;;;;;;0.90;0.60;;;21.70;99.90;;;;;;4966916;28;20206;-96
2022/06/07 20:35:26;;;;;;;1.93;0.77;;;21.70;99.90;;;;;;4996274;28;20311;-95
2022/06/07 20:38:03;;;;;;;2.73;0.87;;;21.90;99.90;;;;;;4989382;28;20703;-96
2022/06/07 20:40:41;;;;;;;1.73;0.70;;;22.20;99.90;;;;;;4984106;28;20230;-96
2022/06/07 20:43:13;;;;;;;0.70;0.60;;;22.10;99.90;;;;;;4948382;29;20231;-96
2022/06/07 20:45:48;;;;;;;1.10;0.87;;;22.40;99.90;;;;;;4964499;28;20219;-96
2022/06/07 20:48:21;;;;;;;1.00;0.70;;;22.70;99.90;;;;;;4965065;28;20665;-96
2022/06/07 20:50:55;;;;;;;1.67;0.57;;;22.80;99.90;;;;;;4968269;28;20215;-96
2022/06/07 20:53:30;;;;;;;2.30;0.70;;;23.10;99.90;;;;;;4986434;28;20209;-96
2022/06/07 20:56:05;;;;;;;2.10;0.87;;;23.20;99.90;;;;;;4979811;28;20655;-96
2022/06/07 20:58:37;;;;;;;2.23;0.83;;;23.50;99.90;;;;;;4981705;28;20230;-96
2022/06/07 21:01:09;;;;;;;3.33;0.70;;;23.60;99.90;;;;;;4981735;28;20211;-96
2022/06/07 21:03:42;;;;;;;1.83;0.60;;;23.70;99.90;;;;;;4981716;28;20226;-96
2022/06/07 21:06:16;;;;;;;2.83;0.67;;;23.90;99.90;;;;;;4984586;28;20306;-96
2022/06/07 21:08:52;;;;;;;2.00;0.93;;;23.70;99.90;;;;;;4984630;28;20206;-96
2022/06/07 21:11:25;;;;;;;1.50;0.70;;;23.70;99.90;;;;;;4982542;28;20210;-96
2022/06/07 21:13:57;;;;;;;1.23;0.70;;;23.50;99.90;;;;;;4982744;28;20636;-96
2022/06/07 21:16:31;;;;;;;3.47;0.80;;;23.40;99.90;;;;;;4963826;28;20287;-96
2022/06/07 21:21:31;;;;;;;1.63;0.77;;;23.40;99.90;;;;;;4996370;28;20218;-96
2022/06/07 21:24:06;;;;;;;1.97;0.90;;;23.60;99.90;;;;;;4997325;28;20246;-96
2022/06/07 21:26:38;;;;;;;1.73;0.80;;;23.60;99.90;;;;;;5003592;28;20237;-96
2022/06/07 21:29:11;;;;;;;1.67;0.50;;;23.50;99.90;;;;;;4997138;28;20248;-96
2022/06/07 21:31:42;;;;;;;1.83;0.60;;;23.40;99.90;;;;;;5010393;28;20206;-96
2022/06/07 21:34:15;;;;;;;1.37;0.60;;;23.20;99.90;;;;;;5009501;28;20650;-96
2022/06/07 21:36:49;;;;;;;1.87;0.70;;;23.10;99.90;;;;;;5009381;28;20202;-96
2022/06/07 21:39:27;;;;;;;2.60;0.67;;;23.40;99.90;;;;;;4990551;28;20221;-96
2022/06/07 21:42:00;;;;;;;2.90;0.80;;;23.60;99.90;;;;;;5008074;28;20201;-96
2022/06/07 21:44:32;;;;;;;2.30;0.60;;;23.80;99.90;;;;;;5009122;28;20285;-96
2022/06/07 21:47:07;;;;;;;1.10;0.60;;;23.80;99.90;;;;;;5011442;28;20286;-96
2022/06/07 21:49:40;;;;;;;0.80;0.60;;;23.40;99.90;;;;;;5011911;28;20194;-96
2022/06/07 21:52:12;;;;;;;1.80;0.60;;;23.40;99.90;;;;;;4985005;28;20240;-96
2022/06/07 21:57:33;;;;;;;0.90;0.80;;;23.00;99.90;;;;;;5001811;28;20253;-96
2022/06/07 22:00:06;;;;;;;2.77;0.70;;;22.80;99.90;;;;;;4986223;28;20206;-96
2022/06/07 22:02:38;;;;;;;1.20;0.60;;;22.80;99.90;;;;;;5009462;28;20218;-96
2022/06/07 22:05:10;;;;;;;1.70;0.63;;;22.90;99.90;;;;;;5002707;28;20234;-95
2022/06/07 22:07:42;;;;;;;2.13;0.67;;;23.00;99.90;;;;;;5009276;28;20203;-95
2022/06/07 22:10:22;;;;;;;1.07;0.60;;;22.90;99.90;;;;;;4992107;28;20218;-95
2022/06/07 22:12:55;;;;;;;3.07;0.80;;;22.60;99.90;;;;;;5007676;28;20198;-94
2022/06/07 22:15:33;;;;;;;0.73;0.60;;;22.60;99.90;;;;;;5007908;28;20206;-95
2022/06/07 22:18:05;;;;;;;1.83;0.53;;;22.70;99.90;;;;;;5005793;28;20265;-95
2022/06/07 22:20:39;;;;;;;1.00;0.60;;;22.70;99.90;;;;;;5004468;28;20286;-93
2022/06/07 22:31:17;;;;;;;2.07;0.70;;;22.90;99.90;;;;;;5032371;28;20237;-96
2022/06/07 22:33:51;;;;;;;2.17;0.63;;;22.90;99.90;;;;;;5029808;28;20214;-95
2022/06/07 22:36:24;;;;;;;2.87;0.70;;;23.00;99.90;;;;;;5028976;28;20211;-95
2022/06/07 22:38:56;;;;;;;3.00;0.83;;;23.10;99.90;;;;;;5027565;28;20201;-94
2022/06/07 22:41:30;;;;;;;0.73;0.60;;;23.20;99.90;;;;;;5025496;28;20209;-96
2022/06/07 22:44:04;;;;;;;2.00;0.70;;;23.20;99.90;;;;;;5011461;28;20241;-95
2022/06/07 22:46:37;;;;;;;0.80;0.43;;;23.30;99.90;;;;;;5008723;28;20261;-96
2022/06/07 22:49:09;;;;;;;0.60;0.60;;;23.40;99.90;;;;;;5016050;28;20214;-95
2022/06/07 22:51:44;;;;;;;2.03;0.80;;;23.30;99.90;;;;;;5030052;28;20213;-95
2022/06/07 22:54:25;;;;;;;3.10;0.70;;;23.20;99.90;;;;;;5022645;28;20244;-95
2022/06/07 22:59:44;;;;;;;3.43;0.77;;;23.30;99.90;;;;;;5034590;23;20275;-95
2022/06/07 23:02:18;;;;;;;1.43;0.80;;;23.60;99.90;;;;;;5022748;28;20205;-95
2022/06/07 23:04:56;;;;;;;0.93;0.60;;;23.60;99.90;;;;;;5033889;28;20337;-95
2022/06/07 23:07:34;;;;;;;2.13;0.60;;;23.40;99.90;;;;;;5012193;28;20202;-94
2022/06/07 23:10:08;;;;;;;1.10;0.40;;;23.40;99.90;;;;;;5015301;28;20213;-95
2022/06/07 23:12:40;;;;;;;1.17;0.60;;;23.40;99.90;;;;;;5030047;28;20289;-95
2022/06/07 23:18:03;;;;;;;1.30;0.60;;;23.20;99.90;;;;;;5033554;28;20209;-94
2022/06/07 23:20:37;;;;;;;2.37;0.70;;;23.20;99.90;;;;;;5028770;28;20216;-94
2022/06/07 23:23:09;;;;;;;2.63;0.60;;;23.20;99.90;;;;;;5032632;28;20213;-94
2022/06/07 23:25:41;;;;;;;1.30;0.70;;;23.10;99.90;;;;;;5033833;28;20253;-94
2022/06/07 23:30:59;;;;;;;2.00;0.90;;;23.00;99.90;;;;;;5028608;28;20202;-95
2022/06/07 23:33:31;;;;;;;3.23;1.00;;;22.80;99.90;;;;;;5029171;28;20340;-96
2022/06/07 23:36:04;;;;;;;3.73;1.00;;;22.70;99.90;;;;;;5000273;28;20236;-91
2022/06/07 23:38:36;;;;;;;3.30;0.93;;;22.70;99.90;;;;;;5015409;28;20233;-91
2022/06/07 23:41:09;;;;;;;2.27;0.97;;;22.60;99.90;;;;;;5027496;28;20240;-95
2022/06/07 23:43:42;;;;;;;5.17;1.20;;;22.70;99.90;;;;;;5030736;28;20277;-95
2022/06/07 23:46:22;;;;;;;4.57;1.37;;;22.60;99.90;;;;;;5030426;28;20776;-95
2022/06/07 23:48:57;;;;;;;3.43;1.03;;;22.60;99.90;;;;;;5029524;28;20218;-95
2022/06/07 23:51:31;;;;;;;0.80;0.70;;;22.60;99.90;;;;;;5014215;28;20650;-95
2022/06/07 23:54:04;;;;;;;2.20;0.70;;;22.70;99.90;;;;;;5037975;28;20204;-96
2022/06/07 23:56:36;;;;;;;1.90;0.60;;;22.90;99.90;;;;;;5008808;28;20209;-96
2022/06/07 23:59:12;;;;;;;3.03;0.70;;;23.10;99.90;;;;;;5018129;28;20245;-95
